FW7501 Weather Reports


Display with metric or nautical units.
time (UTC)temp
F
wind
direction
speed
MPH
gust
MPH
rain 1hr
in
rain 24hr
in
rain mn
in
humidity
%
barometer
mb
20220927101125 53 175 10.0 17.0 0.00 0.67 0.13 96 1012.2
20220927101042 53 175 10.0 17.0 0.00 0.67 0.13 96 1012.2
20220927100049 53 175 12.0 16.0 0.00 0.67 0.13 96 1012.0
20220927095035 53 158 11.0 16.0 0.00 0.71 0.13 96 1011.9
20220927094101 53 175 9.0 17.0 0.00 0.71 0.13 96 1011.8
20220927092055 53 185 11.0 17.0 0.00 0.71 0.13 96 1011.5
20220927091055 53 175 10.0 15.0 0.00 0.71 0.13 96 1011.3
20220927090126 53 180 11.0 15.0 0.00 0.71 0.13 96 1011.2
20220927090042 53 180 11.0 15.0 0.00 0.71 0.13 96 1011.2
20220927085034 53 133 13.0 18.0 0.00 0.71 0.13 96 1011.1
20220927084121 53 161 9.0 16.0 0.00 0.71 0.13 95 1010.9
20220927084038 53 161 9.0 16.0 0.00 0.71 0.13 95 1010.9
20220927083114 53 180 12.0 18.0 0.00 0.71 0.13 95 1010.8
20220927083030 53 180 12.0 18.0 0.00 0.71 0.13 95 1010.8
20220927082121 54 180 13.0 16.0 0.00 0.71 0.13 95 1010.7
20220927082037 54 180 13.0 16.0 0.00 0.71 0.13 95 1010.7
20220927081122 54 180 14.0 22.0 0.00 0.71 0.13 95 1010.5
20220927081039 54 180 14.0 22.0 0.00 0.71 0.13 95 1010.5
20220927080032 54 162 13.0 20.0 0.00 0.71 0.13 94 1010.4
20220927075139 54 169 12.0 20.0 0.00 0.79 0.13 94 1010.4
20220927075056 54 169 12.0 20.0 0.00 0.79 0.13 94 1010.4
20220927074113 54 180 14.0 20.0 0.00 0.79 0.13 93 1010.2
20220927074029 54 180 14.0 20.0 0.00 0.79 0.13 93 1010.2
20220927073112 54 191 12.0 18.0 0.00 0.79 0.13 93 1010.1
20220927072118 55 167 15.0 19.0 0.00 0.79 0.13 93 1009.8
20220927072034 55 167 15.0 19.0 0.00 0.79 0.13 93 1009.8
20220927071033 55 205 12.0 21.0 0.00 0.79 0.13 93 1009.8
20220927070119 55 180 14.0 19.0 0.00 0.79 0.13 93 1009.7
20220927065138 55 180 12.0 17.0 0.00 0.83 0.13 93 1009.6
20220927065055 55 180 12.0 17.0 0.00 0.83 0.13 93 1009.6
20220927064115 55 213 11.0 17.0 0.00 0.83 0.13 92 1009.7
20220927063103 56 175 5.0 11.0 0.00 0.83 0.13 91 1009.6
20220927062056 56 164 9.0 12.0 0.00 0.83 0.13 90 1009.5
20220927061103 56 164 9.0 14.0 0.00 0.83 0.13 90 1009.5
20220927060046 56 185 6.0 11.0 0.00 0.83 0.13 91 1009.6
20220927055132 56 185 10.0 14.0 0.00 0.87 0.13 89 1009.7
20220927055049 56 185 10.0 14.0 0.00 0.87 0.13 89 1009.7
20220927054033 56 162 11.0 15.0 0.00 0.87 0.13 88 1009.7
20220927053043 57 169 10.0 16.0 0.00 0.87 0.13 87 1009.7
20220927052100 56 193 9.0 13.0 0.00 0.87 0.13 88 1009.8
20220927051043 55 185 7.0 12.0 0.00 0.87 0.13 90 1009.9
20220927050034 55 175 10.0 15.0 0.00 0.87 0.13 91 1009.8
20220927045057 55 175 8.0 13.0 0.00 0.91 0.13 91 1009.9
20220927044028 55 193 9.0 13.0 0.00 0.91 0.13 92 1010.0
20220927043032 56 150 10.0 12.0 0.00 0.91 0.13 92 1010.1
20220927042041 55 205 9.0 13.0 0.00 0.91 0.13 92 1010.1
20220927041134 55 143 6.0 9.0 0.00 0.91 0.13 94 1010.2
20220927041050 55 143 6.0 9.0 0.00 0.91 0.13 94 1010.2
20220927040117 54 180 7.0 10.0 0.00 0.91 0.13 95 1010.2
20220927040034 54 180 7.0 10.0 0.00 0.91 0.13 95 1010.2
20220927035128 55 171 10.0 12.0 0.04 0.91 0.13 94 1010.2
20220927035044 55 171 10.0 12.0 0.04 0.91 0.13 94 1010.2
20220927034109 54 207 7.0 12.0 0.08 0.91 0.13 94 1010.3
20220927033133 54 180 9.0 14.0 0.08 0.91 0.13 95 1010.3
20220927033050 54 180 9.0 14.0 0.08 0.91 0.13 95 1010.3
20220927032113 54 192 7.0 9.0 0.08 0.91 0.13 94 1010.4
20220927032030 54 192 7.0 9.0 0.08 0.91 0.13 94 1010.4
20220927031041 54 163 6.0 11.0 0.08 0.91 0.13 94 1010.6
20220927030034 54 175 8.0 11.0 0.08 0.91 0.13 94 1010.8
20220927025042 54 169 6.0 10.0 0.04 0.87 0.13 94 1010.9
20220927024034 54 152 4.0 11.0 0.00 0.83 0.12 94 1010.9
20220927023120 54 161 6.0 11.0 0.08 0.83 0.12 93 1011.0
20220927023037 54 161 6.0 11.0 0.08 0.83 0.12 93 1011.0
20220927022113 54 180 5.0 9.0 0.16 0.83 0.12 93 1011.0
20220927022030 54 180 5.0 9.0 0.16 0.83 0.12 93 1011.0
20220927021031 55 212 7.0 10.0 0.31 0.83 0.12 93 1011.0
20220927020108 54 169 6.0 9.0 0.47 0.83 0.12 93 1011.1
20220927014052 54 194 4.0 7.0 0.55 0.79 0.11 94 1011.3
20220927013135 53 185 0.0 2.0 0.51 0.75 0.10 94 1011.4
20220927013051 53 185 0.0 2.0 0.51 0.75 0.10 94 1011.4
20220927012119 53 185 0.0 1.0 0.43 0.67 0.09 93 1011.6
20220927012036 53 185 0.0 1.0 0.43 0.67 0.09 93 1011.6
20220927011109 52 185 0.0 1.0 0.28 0.51 0.06 92 1011.8
20220927010132 52 185 1.0 4.0 0.12 0.35 0.02 92 1011.7
20220927005120 52 185 2.0 3.0 0.08 0.31 0.02 92 1011.6
20220927005037 52 185 2.0 3.0 0.08 0.31 0.02 92 1011.6
20220927004048 52 185 3.0 5.0 0.00 0.24 0.00 91 1011.7
20220927003116 52 203 3.0 9.0 0.00 0.24 0.00 91 1011.6
20220927002029 53 192 5.0 9.0 0.00 0.24 0.00 91 1011.4
20220927001112 53 208 6.0 10.0 0.00 0.24 0.00 91 1011.5
20220927000039 53 185 5.0 10.0 0.00 0.24 0.00 90 1011.5
20220926235048 53 175 6.0 10.0 0.00 0.31 0.00 90 1011.5
20220926234027 53 175 7.0 11.0 0.00 0.31 0.00 91 1011.4
20220926233053 52 162 8.0 12.0 0.00 0.31 0.00 90 1011.5
20220926232031 52 189 6.0 11.0 0.00 0.31 0.00 91 1011.6
20220926231043 52 175 6.0 10.0 0.00 0.31 0.00 92 1011.6
20220926230129 51 168 5.0 8.0 0.00 0.31 0.00 92 1011.7
20220926225032 51 193 5.0 8.0 0.00 0.35 0.00 93 1011.6
20220926224041 51 175 4.0 8.0 0.00 0.35 0.00 93 1011.6
20220926223129 51 162 5.0 11.0 0.00 0.35 0.00 93 1011.6
20220926223045 51 162 5.0 11.0 0.00 0.35 0.00 93 1011.6
20220926222055 51 175 7.0 10.0 0.00 0.35 0.00 93 1011.6
20220926220046 50 169 5.0 9.0 0.00 0.35 0.00 94 1011.6
20220926215138 50 142 5.0 8.0 0.00 0.39 0.00 94 1011.6
20220926215054 50 142 5.0 8.0 0.00 0.39 0.00 94 1011.6
20220926214131 50 137 5.0 8.0 0.00 0.39 0.00 93 1011.6
20220926214048 50 137 5.0 8.0 0.00 0.39 0.00 93 1011.6
20220926213034 50 150 3.0 5.0 0.00 0.39 0.00 93 1011.6
20220926212106 49 185 4.0 6.0 0.00 0.39 0.00 93 1011.7
20220926211034 49 199 4.0 5.0 0.00 0.39 0.00 93 1011.7
20220926210049 49 180 1.0 2.0 0.00 0.39 0.00 93 1011.7
20220926205104 49 180 2.0 4.0 0.00 0.47 0.00 93 1011.6
20220926204118 49 185 3.0 4.0 0.00 0.47 0.00 93 1011.5
20220926203039 49 185 3.0 4.0 0.00 0.47 0.00 92 1011.4
20220926202133 49 185 2.0 3.0 0.00 0.47 0.00 92 1011.4
20220926200046 49 143 3.0 5.0 0.00 0.47 0.00 92 1011.2
20220926195103 49 141 3.0 4.0 0.00 0.47 0.00 92 1011.1
20220926194057 49 168 3.0 5.0 0.00 0.47 0.00 92 1011.0
20220926193113 49 153 3.0 4.0 0.00 0.47 0.00 92 1010.9
20220926193029 49 153 3.0 4.0 0.00 0.47 0.00 92 1010.9
20220926192102 49 133 2.0 5.0 0.00 0.47 0.00 92 1010.9
20220926191107 49 127 4.0 6.0 0.00 0.47 0.00 93 1010.7
20220926190122 49 137 3.0 4.0 0.00 0.47 0.00 93 1010.7
20220926185107 49 142 2.0 3.0 0.00 0.47 0.00 93 1010.8
20220926184053 49 142 0.0 1.0 0.00 0.47 0.00 93 1010.9
20220926182040 49 141 1.0 3.0 0.00 0.47 0.00 93 1011.0
20220926181044 49 141 2.0 3.0 0.00 0.47 0.00 93 1011.0
20220926180036 49 142 0.0 0.0 0.00 0.47 0.00 93 1011.1
20220926175111 49 142 0.0 0.0 0.00 0.47 0.00 93 1011.1
20220926174044 49 142 0.0 0.0 0.00 0.47 0.00 93 1011.1
20220926173030 49 142 0.0 2.0 0.00 0.47 0.00 92 1011.1
20220926171123 49 142 0.0 0.0 0.00 0.47 0.00 92 1011.2
20220926170132 49 142 0.0 1.0 0.00 0.47 0.00 92 1011.1
20220926170049 49 142 0.0 1.0 0.00 0.47 0.00 92 1011.1
20220926165114 49 142 2.0 2.0 0.00 0.47 0.00 92 1011.2
20220926165030 49 142 2.0 2.0 0.00 0.47 0.00 92 1011.2
20220926164122 49 118 1.0 2.0 0.00 0.47 0.00 92 1011.2
20220926164039 49 118 1.0 2.0 0.00 0.47 0.00 92 1011.2
20220926163102 49 118 0.0 2.0 0.00 0.47 0.00 91 1011.3
20220926162119 49 116 1.0 3.0 0.00 0.47 0.00 92 1011.2
20220926162035 49 116 1.0 3.0 0.00 0.47 0.00 92 1011.2
20220926161117 49 119 2.0 2.0 0.00 0.47 0.00 92 1011.4
20220926161034 49 119 2.0 2.0 0.00 0.47 0.00 92 1011.4
20220926160059 49 119 0.0 1.0 0.00 0.47 0.00 92 1011.5
20220926155046 49 119 0.0 2.0 0.00 0.47 0.00 91 1011.6
20220926154043 49 114 2.0 3.0 0.00 0.47 0.00 92 1011.6
20220926153110 49 107 2.0 4.0 0.00 0.47 0.00 92 1011.7
20220926152052 49 106 0.0 0.0 0.00 0.47 0.00 93 1011.9
20220926151052 49 351 0.0 0.0 0.00 0.47 0.00 92 1012.0
20220926150038 49 351 0.0 1.0 0.00 0.47 0.00 92 1012.0
20220926145047 49 351 1.0 2.0 0.00 0.47 0.00 92 1011.9
20220926144129 49 351 0.0 0.0 0.00 0.47 0.00 92 1012.0
20220926144046 49 351 0.0 0.0 0.00 0.47 0.00 92 1012.0
20220926143028 49 351 0.0 0.0 0.00 0.47 0.00 92 1012.0
20220926142036 49 351 0.0 1.0 0.00 0.47 0.00 91 1012.1
20220926141059 49 351 0.0 1.0 0.00 0.47 0.00 91 1012.1
20220926140104 49 351 2.0 3.0 0.00 0.47 0.00 91 1012.1
20220926135124 49 351 0.0 4.0 0.00 0.47 0.09 91 1012.0
20220926135041 49 351 0.0 4.0 0.00 0.47 0.09 91 1012.0
20220926134135 49 351 3.0 4.0 0.00 0.47 0.09 91 1012.2
20220926134052 49 351 3.0 4.0 0.00 0.47 0.09 91 1012.2
20220926133039 49 348 1.0 2.0 0.00 0.47 0.09 90 1012.2
20220926132056 49 348 1.0 3.0 0.00 0.47 0.09 89 1012.1
20220926131055 49 348 1.0 3.0 0.00 0.47 0.09 89 1012.3
20220926130029 50 333 2.0 4.0 0.00 0.47 0.09 89 1012.3
20220926125125 50 349 4.0 6.0 0.00 0.47 0.09 89 1012.2
20220926124051 49 8 2.0 3.0 0.00 0.47 0.09 89 1012.3
20220926123054 50 356 3.0 4.0 0.00 0.47 0.09 88 1012.4
20220926122133 50 1 4.0 6.0 0.00 0.47 0.09 88 1012.6
20220926122049 50 1 4.0 6.0 0.00 0.47 0.09 88 1012.6
20220926121120 50 354 6.0 8.0 0.00 0.47 0.09 88 1012.5
20220926121036 50 354 6.0 8.0 0.00 0.47 0.09 88 1012.5
20220926120047 50 345 3.0 9.0 0.00 0.47 0.09 87 1012.6
20220926115114 50 26 3.0 8.0 0.00 0.47 0.09 88 1012.5
20220926114034 50 33 3.0 10.0 0.00 0.47 0.09 89 1012.6
20220926113037 49 344 3.0 9.0 0.00 0.47 0.09 89 1012.7
20220926112050 49 1 6.0 8.0 0.00 0.47 0.09 89 1012.7
20220926111049 49 354 5.0 7.0 0.00 0.47 0.09 90 1012.7
20220926110107 49 15 3.0 8.0 0.00 0.47 0.09 90 1012.7
20220926104034 49 11 6.0 8.0 0.00 0.47 0.09 91 1012.8
20220926103114 49 6 3.0 7.0 0.00 0.47 0.09 91 1012.6
20220926102107 49 350 4.0 5.0 0.00 0.47 0.09 92 1012.7